Plano, Illinois
Current Conditions -  °F | °C
As of 6:52 PM on Thursday 27 Nov 2014 (Local Time) from KARR Reporting Station
Broken Clouds Broken Clouds  
Wind Chill:   Ceiling: 3400
Heat Index: 13°   Visibility: 10mi
Dew Point:   Wind: 6mph
Humidity: 77%   Direction: 290°WNW
Pressure: 30.4"   Gusts: NA
Location:  41.66°N, 88.54°W
Report Text: KARR 280052Z 29005KT 10SM BKN034 M11/M14 A3040 RMK AO2 SLP309 T11061139 $
Loading
Personal Weather Stations






























Interactive Weather Map New forecast layout! Learn more

10-Day Weather Forecast

Advertisements
Track Severe Weather on mobile